Terminal Aerodrome Forecast
Issued by NWS

Home | Current Version | Previous Version | Text Only | Print | Product List | Glossary On
Versions: 1 2 3 4 5 6 7 8 9 10 11 12 13 14 15 16
000
FTUS43 KLSX 101136
TAFCPS
TAF
KCPS 101136Z 1012/1112 20007KT P6SM SKC
     FM101500 21011G18KT P6SM SCT250
     FM101900 27011G19KT P6SM SCT250
     FM110000 31006KT P6SM SCT250
     FM110600 VRB03KT P6SM BKN250=

USA.gov is the U.S. government's official web portal to all federal, state and local government web resources and services.